^^
Saratoga-Weather Station Historical Data
Daily Summary for July 15, 2021 Units:  English    Metric   Both
Daily Weekly Monthly Yearly Custom
  High: Low: Average:
Temperature: 54.5 °F 48 °F 50.7 °F
Dew Point: 49.8 °F 46 °F 47.5 °F
Humidity: 93% 79% 89%
Wind Speed: 10.1mph 0mph 1.3mph
Wind Gust: 12mph - -
Wind- - South
Pressure: 29.8 in 29.6 in -
Precipitation: 0.12 in    
Historical Graphs
 
 
Tabular Data for July 15, 2021
Time Temperature Dew Point Pressure Wind Wind Speed Wind Gust Humidity Rainfall Rate (Hourly) solar
00:04 50.7 °F 46.4 °F 29.8 in Calm   3 mph 85% 0 in 0 W/m2
00:09 50.7 °F 46.4 °F 29.8 in NE 0.9 mph 2 mph 85% 0 in 0 W/m2
00:14 50.9 °F 46.6 °F 29.8 in ENE 2 mph 2 mph 85% 0 in 0 W/m2
00:19 50.9 °F 46.6 °F 29.8 in NNE 2 mph 2 mph 85% 0 in 0 W/m2
00:24 51.1 °F 47.1 °F 29.8 in NW 0.9 mph 3 mph 86% 0 in 0 W/m2
00:29 50.9 °F 46.9 °F 29.8 in ESE 2 mph 4 mph 86% 0 in 0 W/m2
00:34 50.9 °F 47.1 °F 29.8 in North 2 mph 2 mph 87% 0 in 0 W/m2
00:39 50.7 °F 46.9 °F 29.8 in NNW 0.9 mph 3 mph 87% 0 in 0 W/m2
00:44 50.7 °F 46.9 °F 29.8 in NW 0.9 mph 3 mph 87% 0 in 0 W/m2
00:49 50.7 °F 47.3 °F 29.8 in NNW 0.9 mph 2 mph 88% 0 in 0 W/m2
00:54 50.7 °F 47.3 °F 29.8 in NNE 0.9 mph 3 mph 88% 0 in 0 W/m2
00:59 50.7 °F 47.3 °F 29.8 in West 0.9 mph 12 mph 88% 0 in 0 W/m2
01:04 50.5 °F 47.1 °F 29.8 in Calm   4 mph 88% 0.01 in 0 W/m2
01:09 50.5 °F 47.5 °F 29.8 in SSE 0.9 mph 12 mph 89% 0.02 in 0 W/m2
01:14 50.4 °F 47.3 °F 29.8 in Calm   2 mph 89% 0.02 in 0 W/m2
01:19 50.2 °F 47.1 °F 29.8 in NW 0.9 mph 3 mph 89% 0.03 in 0 W/m2
01:24 50.2 °F 47.3 °F 29.8 in NNW 0.9 mph 3 mph 90% 0.03 in 0 W/m2
01:29 50 °F 47.1 °F 29.8 in NW 4 mph 5 mph 90% 0.03 in 0 W/m2
01:34 49.8 °F 47.3 °F 29.8 in Calm     91% 0.03 in 0 W/m2
01:39 49.8 °F 47.3 °F 29.8 in Calm   3 mph 91% 0.03 in 0 W/m2
01:44 49.6 °F 47.1 °F 29.8 in ESE 2 mph 2 mph 91% 0.03 in 0 W/m2
01:49 49.6 °F 47.1 °F 29.8 in WSW 0.9 mph 2 mph 91% 0.03 in 0 W/m2
01:54 49.6 °F 47.5 °F 29.8 in Calm   2 mph 92% 0.03 in 0 W/m2
01:59 49.6 °F 47.5 °F 29.8 in NE 0.9 mph 5 mph 92% 0.05 in 0 W/m2
02:04 49.6 °F 47.5 °F 29.8 in Calm   2 mph 92% 0.06 in 0 W/m2
02:09 49.6 °F 47.5 °F 29.8 in NNW 4.9 mph 6 mph 92% 0.06 in 0 W/m2
02:14 49.6 °F 47.5 °F 29.8 in West 0.9 mph 2 mph 92% 0.06 in 0 W/m2
02:19 49.6 °F 47.5 °F 29.8 in WNW 0.9 mph 6 mph 92% 0.05 in 0 W/m2
02:24 49.6 °F 47.5 °F 29.8 in WNW 2 mph 3 mph 92% 0.05 in 0 W/m2
02:29 49.6 °F 47.5 °F 29.8 in SW 0.9 mph 1 mph 92% 0.05 in 0 W/m2
02:34 49.6 °F 47.5 °F 29.8 in NW 0.9 mph 2 mph 92% 0.05 in 0 W/m2
02:40 49.6 °F 47.5 °F 29.8 in NNW 0.9 mph 2 mph 92% 0.05 in 0 W/m2
02:45 49.6 °F 47.5 °F 29.8 in WNW 2 mph 4 mph 92% 0.05 in 0 W/m2
02:50 49.6 °F 47.5 °F 29.8 in NW 2.9 mph 4 mph 92% 0.05 in 0 W/m2
02:55 49.5 °F 47.3 °F 29.8 in NE 0.9 mph 2 mph 92% 0.05 in 0 W/m2
03:00 49.5 °F 47.3 °F 29.8 in West 0.9 mph 4 mph 92% 0.02 in 0 W/m2
03:05 49.5 °F 47.3 °F 29.8 in WNW 0.9 mph 2 mph 92% 0.02 in 0 W/m2
03:10 49.3 °F 47.1 °F 29.8 in WNW 4 mph 4 mph 92% 0.01 in 0 W/m2
03:15 49.3 °F 47.1 °F 29.8 in NW 2 mph 4 mph 92% 0 in 0 W/m2
03:20 49.5 °F 47.3 °F 29.8 in West 0.9 mph 5 mph 92% 0 in 0 W/m2
03:25 49.5 °F 47.3 °F 29.8 in WNW 0.9 mph 3 mph 92% 0 in 0 W/m2
03:30 49.5 °F 46.9 °F 29.8 in Calm   4 mph 91% 0 in 0 W/m2
03:35 49.5 °F 46.9 °F 29.8 in Calm   2 mph 91% 0 in 0 W/m2
03:40 49.5 °F 46.9 °F 29.8 in NW 2 mph 4 mph 91% 0 in 0 W/m2
03:45 49.3 °F 46.8 °F 29.8 in North 2.9 mph 7 mph 91% 0 in 0 W/m2
03:50 49.3 °F 46.8 °F 29.8 in NW 2 mph 4 mph 91% 0 in 0 W/m2
03:55 49.1 °F 46.6 °F 29.8 in Calm   6 mph 91% 0 in 0 W/m2
04:00 48.9 °F 46.4 °F 29.8 in West 2.9 mph 9 mph 91% 0 in 0 W/m2
04:05 48.7 °F 46.6 °F 29.8 in Calm   2 mph 92% 0 in 0 W/m2
04:10 48.6 °F 46 °F 29.8 in Calm   9 mph 91% 0 in 0 W/m2
04:15 48.4 °F 46.2 °F 29.8 in Calm   3 mph 92% 0 in 0 W/m2
04:20 48.4 °F 46.2 °F 29.8 in WSW 0.9 mph 1 mph 92% 0 in 0 W/m2
04:25 48.4 °F 46.2 °F 29.8 in Calm     92% 0 in 0 W/m2
04:30 48.4 °F 46.4 °F 29.8 in Calm   1 mph 93% 0 in 0 W/m2
04:35 48.4 °F 46.4 °F 29.8 in NW 0.9 mph 2 mph 93% 0 in 0 W/m2
04:40 48.4 °F 46.4 °F 29.8 in Calm     93% 0 in 0 W/m2
04:45 48.4 °F 46.4 °F 29.8 in Calm   3 mph 93% 0 in 0 W/m2
04:50 48.4 °F 46.4 °F 29.8 in Calm   2 mph 93% 0 in 0 W/m2
04:55 48.4 °F 46.4 °F 29.8 in East 2 mph 3 mph 93% 0 in 0 W/m2
05:00 48.4 °F 46.4 °F 29.8 in East 2 mph 2 mph 93% 0 in 0 W/m2
05:05 48.4 °F 46.4 °F 29.8 in Calm   3 mph 93% 0.01 in 0 W/m2
05:10 48.4 °F 46.4 °F 29.8 in East 2 mph 2 mph 93% 0.01 in 0 W/m2
05:15 48.4 °F 46.4 °F 29.8 in East 3 mph 3 mph 93% 0.01 in 0 W/m2
05:20 48.4 °F 46.4 °F 29.8 in Calm   1 mph 93% 0.01 in 0 W/m2
05:25 48.4 °F 46.4 °F 29.8 in WSW 2 mph 3 mph 93% 0.01 in 0 W/m2
05:30 48.4 °F 46.4 °F 29.8 in Calm   1 mph 93% 0.01 in 0 W/m2
05:35 48.2 °F 46.2 °F 29.8 in NW 0.9 mph 3 mph 93% 0.01 in 0 W/m2
05:40 48 °F 46 °F 29.8 in Calm   1 mph 93% 0.01 in 0 W/m2
05:45 48 °F 46 °F 29.8 in NW 2 mph 3 mph 93% 0.01 in 0 W/m2
05:50 48 °F 46 °F 29.8 in Calm   2 mph 93% 0.01 in 0 W/m2
05:55 48 °F 46 °F 29.8 in Calm   3 mph 93% 0.01 in 0 W/m2
06:00 48 °F 46 °F 29.8 in Calm     93% 0.01 in 0 W/m2
06:05 48.2 °F 46.2 °F 29.7 in Calm     93% 0 in 0 W/m2
06:10 48.2 °F 46.2 °F 29.7 in Calm   1 mph 93% 0 in 5 W/m2
06:15 48.4 °F 46.4 °F 29.7 in Calm   1 mph 93% 0 in 11 W/m2
06:20 48.4 °F 46.4 °F 29.7 in NE 2 mph 3 mph 93% 0 in 14 W/m2
06:25 48.4 °F 46.4 °F 29.7 in Calm   2 mph 93% 0 in 14 W/m2
06:30 48.6 °F 46.6 °F 29.7 in Calm   3 mph 93% 0 in 11 W/m2
06:35 48.6 °F 46.6 °F 29.7 in NNW 0.9 mph 2 mph 93% 0 in 14 W/m2
06:40 48.6 °F 46.6 °F 29.7 in Calm   2 mph 93% 0 in 14 W/m2
06:45 48.6 °F 46.6 °F 29.7 in Calm   3 mph 93% 0 in 18 W/m2
06:50 48.7 °F 46.8 °F 29.7 in NE 0.9 mph 2 mph 93% 0 in 25 W/m2
06:55 48.7 °F 46.8 °F 29.7 in Calm   1 mph 93% 0 in 30 W/m2
07:01 48.7 °F 46.8 °F 29.7 in Calm   1 mph 93% 0 in 26 W/m2
07:06 48.9 °F 46.9 °F 29.7 in NE 0.9 mph 2 mph 93% 0 in 28 W/m2
07:11 48.9 °F 46.9 °F 29.7 in NE 2 mph 2 mph 93% 0 in 65 W/m2
07:16 49.1 °F 47.1 °F 29.7 in ENE 2 mph 4 mph 93% 0 in 60 W/m2
07:21 49.3 °F 47.3 °F 29.7 in ENE 0.9 mph 3 mph 93% 0 in 62 W/m2
07:26 49.5 °F 47.5 °F 29.7 in Calm   4 mph 93% 0 in 49 W/m2
07:31 49.5 °F 47.3 °F 29.7 in Calm   1 mph 92% 0 in 46 W/m2
07:36 49.6 °F 47.5 °F 29.7 in North 0.9 mph 2 mph 92% 0 in 39 W/m2
07:41 49.6 °F 47.5 °F 29.7 in ENE 2 mph 5 mph 92% 0 in 32 W/m2
07:46 49.6 °F 47.5 °F 29.7 in Calm     92% 0 in 33 W/m2
07:51 49.6 °F 47.5 °F 29.7 in ENE 2 mph 5 mph 92% 0 in 39 W/m2
07:56 49.6 °F 47.5 °F 29.7 in ENE 2 mph 3 mph 92% 0 in 47 W/m2
08:01 49.8 °F 47.7 °F 29.7 in ENE 0.9 mph 2 mph 92% 0 in 35 W/m2
08:06 49.8 °F 47.7 °F 29.7 in East 2.9 mph 4 mph 92% 0 in 47 W/m2
08:11 49.8 °F 47.7 °F 29.7 in East 2 mph 5 mph 92% 0 in 74 W/m2
08:16 49.8 °F 47.7 °F 29.7 in NE 0.9 mph 2 mph 92% 0 in 53 W/m2
08:21 49.8 °F 47.7 °F 29.7 in North 2.9 mph 5 mph 92% 0 in 63 W/m2
08:26 49.8 °F 47.7 °F 29.7 in NE 0.9 mph 2 mph 92% 0 in 77 W/m2
08:31 49.8 °F 47.7 °F 29.7 in NE 0.9 mph 2 mph 92% 0 in 83 W/m2
08:36 50 °F 47.8 °F 29.7 in NNE 0.9 mph 2 mph 92% 0 in 84 W/m2
08:41 50.2 °F 48 °F 29.7 in WNW 6 mph 6 mph 92% 0 in 141 W/m2
08:46 50.2 °F 47.7 °F 29.7 in NW 2 mph 3 mph 91% 0 in 137 W/m2
08:51 50.2 °F 47.7 °F 29.7 in Calm   2 mph 91% 0 in 114 W/m2
08:56 50.4 °F 47.8 °F 29.7 in NNW 2.9 mph 3 mph 91% 0 in 88 W/m2
09:01 50.4 °F 47.5 °F 29.7 in Calm   2 mph 90% 0 in 69 W/m2
09:06 50.4 °F 47.5 °F 29.7 in NNE 0.9 mph 3 mph 90% 0 in 121 W/m2
09:11 50.5 °F 47.7 °F 29.7 in Calm   1 mph 90% 0 in 130 W/m2
09:16 50.7 °F 47.8 °F 29.7 in WNW 2 mph 3 mph 90% 0 in 213 W/m2
09:21 50.9 °F 48 °F 29.7 in Calm   3 mph 90% 0 in 202 W/m2
09:26 51.3 °F 48.4 °F 29.7 in North 2.9 mph 3 mph 90% 0 in 230 W/m2
09:31 51.3 °F 48.2 °F 29.7 in NNE 0.9 mph 3 mph 89% 0 in 98 W/m2
09:36 51.4 °F 48.6 °F 29.7 in NW 2 mph 3 mph 90% 0 in 79 W/m2
09:41 51.4 °F 48.4 °F 29.7 in SE 2.9 mph 3 mph 89% 0 in 137 W/m2
09:46 51.4 °F 48.4 °F 29.7 in NE 2 mph 3 mph 89% 0 in 255 W/m2
09:51 51.6 °F 48.7 °F 29.7 in North 0.9 mph 4 mph 90% 0 in 308 W/m2
09:56 52 °F 49.1 °F 29.7 in NE 0.9 mph 5 mph 90% 0 in 250 W/m2
10:01 52.2 °F 49.1 °F 29.7 in Calm   3 mph 89% 0 in 248 W/m2
10:06 52.3 °F 48.9 °F 29.7 in North 2 mph 3 mph 88% 0 in 211 W/m2
10:11 52.3 °F 48.9 °F 29.7 in Calm   2 mph 88% 0 in 250 W/m2
10:16 52.5 °F 48.7 °F 29.7 in North 0.9 mph 2 mph 87% 0 in 334 W/m2
10:21 52.7 °F 48.9 °F 29.7 in NW 0.9 mph 5 mph 87% 0 in 232 W/m2
10:26 52.5 °F 48.4 °F 29.7 in NNW 2 mph 3 mph 86% 0 in 197 W/m2
10:31 52.5 °F 48.2 °F 29.7 in Calm   9 mph 85% 0 in 206 W/m2
10:36 52.5 °F 48.2 °F 29.7 in SW 2 mph 4 mph 85% 0 in 234 W/m2
10:41 52.5 °F 48.4 °F 29.7 in North 0.9 mph 7 mph 86% 0 in 255 W/m2
10:46 52.9 °F 48.7 °F 29.7 in ENE 2.9 mph 3 mph 86% 0 in 250 W/m2
10:51 53.2 °F 48.9 °F 29.7 in West 2.9 mph 4 mph 85% 0 in 323 W/m2
10:56 53.4 °F 48.7 °F 29.7 in WNW 2 mph 4 mph 84% 0 in 371 W/m2
11:01 53.8 °F 49.1 °F 29.7 in NE 2 mph 3 mph 84% 0 in 359 W/m2
11:06 53.8 °F 48.7 °F 29.7 in NW 2.9 mph 6 mph 83% 0 in 318 W/m2
11:11 54 °F 48.9 °F 29.7 in Calm   4 mph 83% 0 in 295 W/m2
11:16 54 °F 48.2 °F 29.7 in Calm   4 mph 81% 0 in 148 W/m2
11:26 53.8 °F 47.5 °F 29.7 in SE 0.9 mph 4 mph 79% 0 in 104 W/m2
11:31 53.4 °F 47.1 °F 29.7 in NE 2.9 mph 4 mph 79% 0 in 104 W/m2
11:36 53.2 °F 47.3 °F 29.7 in Calm   3 mph 80% 0 in 107 W/m2
11:41 53.1 °F 47.3 °F 29.7 in NE 4 mph 5 mph 81% 0 in 167 W/m2
11:46 52.3 °F 46.9 °F 29.7 in NW 0.9 mph 7 mph 82% 0 in 218 W/m2
11:51 52.2 °F 47.1 °F 29.7 in North 0.9 mph 3 mph 83% 0 in 251 W/m2
11:56 52.3 °F 47.7 °F 29.7 in NW 2 mph 7 mph 84% 0 in 272 W/m2
12:01 52.5 °F 47.5 °F 29.7 in Calm   3 mph 83% 0.01 in 315 W/m2
12:06 52.7 °F 48 °F 29.7 in WSW 2 mph 5 mph 84% 0.01 in 357 W/m2
12:11 53.1 °F 48.7 °F 29.7 in Calm   2 mph 85% 0.01 in 376 W/m2
12:16 53.6 °F 49.3 °F 29.7 in East 2.9 mph 6 mph 85% 0.01 in 265 W/m2
12:21 53.8 °F 48.7 °F 29.7 in East 2.9 mph 5 mph 83% 0.01 in 478 W/m2
12:26 54.1 °F 48.7 °F 29.7 in SSW 0.9 mph 2 mph 82% 0.01 in 327 W/m2
12:31 54.5 °F 48.7 °F 29.7 in ENE 2.9 mph 3 mph 81% 0.01 in 200 W/m2
12:36 54.3 °F 48.2 °F 29.7 in SSE 0.9 mph 6 mph 80% 0.01 in 192 W/m2
12:41 54.1 °F 48 °F 29.7 in WNW 0.9 mph 2 mph 80% 0.01 in 105 W/m2
12:46 54.1 °F 48 °F 29.7 in East 2.9 mph 5 mph 80% 0.01 in 130 W/m2
12:51 54 °F 48 °F 29.7 in East 0.9 mph 4 mph 80% 0.01 in 105 W/m2
12:56 53.6 °F 47.7 °F 29.7 in WNW 2 mph 2 mph 80% 0.01 in 102 W/m2
13:01 53.2 °F 47.3 °F 29.7 in ENE 4 mph 5 mph 80% 0 in 102 W/m2
13:06 52.9 °F 47.3 °F 29.7 in ESE 0.9 mph 8 mph 81% 0 in 162 W/m2
13:11 52.7 °F 47.3 °F 29.7 in WNW 0.9 mph 3 mph 82% 0 in 167 W/m2
13:17 52.5 °F 47.5 °F 29.7 in East 0.9 mph 5 mph 83% 0.01 in 260 W/m2
13:22 52.5 °F 47.5 °F 29.7 in Calm   3 mph 83% 0.01 in 239 W/m2
13:27 52.5 °F 47.8 °F 29.7 in East 4 mph 8 mph 84% 0.02 in 258 W/m2
13:32 52.5 °F 47.8 °F 29.7 in ENE 2 mph 3 mph 84% 0.02 in 371 W/m2
13:37 52.7 °F 48.4 °F 29.7 in NNW 0.9 mph 8 mph 85% 0.02 in 207 W/m2
13:42 52.7 °F 48 °F 29.7 in NW 4 mph 4 mph 84% 0.02 in 183 W/m2
13:47 52.7 °F 47.7 °F 29.7 in East 2 mph 7 mph 83% 0.02 in 195 W/m2
13:52 52.7 °F 48.4 °F 29.7 in Calm   3 mph 85% 0.02 in 181 W/m2
13:57 52.9 °F 48.6 °F 29.7 in North 0.9 mph 4 mph 85% 0.02 in 155 W/m2
14:02 52.7 °F 48.4 °F 29.6 in East 2.9 mph 4 mph 85% 0.02 in 274 W/m2
14:07 52.7 °F 48.4 °F 29.6 in NNE 2 mph 4 mph 85% 0.02 in 267 W/m2
14:12 52.9 °F 48.6 °F 29.6 in ESE 2.9 mph 3 mph 85% 0.02 in 216 W/m2
14:17 52.9 °F 48.6 °F 29.6 in East 0.9 mph 4 mph 85% 0.02 in 146 W/m2
14:22 52.7 °F 48.4 °F 29.6 in East 0.9 mph 5 mph 85% 0.02 in 151 W/m2
14:27 52.5 °F 48.2 °F 29.6 in East 2 mph 7 mph 85% 0.01 in 178 W/m2
14:32 52.5 °F 48.4 °F 29.6 in Calm   3 mph 86% 0.01 in 134 W/m2
14:37 52.5 °F 48.4 °F 29.6 in NE 2.9 mph 7 mph 86% 0.01 in 144 W/m2
14:42 52.7 °F 48.9 °F 29.6 in Calm   2 mph 87% 0.01 in 316 W/m2
14:47 53.1 °F 48.9 °F 29.6 in ENE 0.9 mph 4 mph 86% 0.01 in 199 W/m2
14:52 53.1 °F 48.9 °F 29.6 in Calm   5 mph 86% 0.01 in 69 W/m2
14:57 53.1 °F 48.9 °F 29.6 in ENE 2 mph 4 mph 86% 0.01 in 86 W/m2
15:02 53.1 °F 48.9 °F 29.6 in NE 2 mph 3 mph 86% 0.01 in 160 W/m2
15:07 53.2 °F 49.1 °F 29.6 in ENE 2 mph 7 mph 86% 0.01 in 207 W/m2
15:12 53.4 °F 49.1 °F 29.6 in NE 0.9 mph 3 mph 85% 0.01 in 185 W/m2
15:17 53.4 °F 49.1 °F 29.6 in South 2.9 mph 9 mph 85% 0 in 113 W/m2
15:22 53.6 °F 49.5 °F 29.6 in WSW 2 mph 7 mph 86% 0 in 218 W/m2
15:33 53.8 °F 49.6 °F 29.6 in West 10.1 mph 10 mph 86% 0 in 392 W/m2
15:38 54.3 °F 49.8 °F 29.6 in NW 0.9 mph 7 mph 85% 0 in 995 W/m2
Juneau County Weather
Compliments of Weather Underground - 2 mb